Time;durP1;ratioP1;P1;durP2;ratioP2;P2;SDS_P1;SDS_P2;PMS_P1;PMS_P2;Temp;Humidity;BMP_temperature;BMP_pressure;BME280_temperature;BME280_humidity;BME280_pressure;Samples;Min_cycle;Max_cycle;Signal;HPM_P1;HPM_P2
2022/04/28 00:00:03;;;;;;;10.85;8.75;;;;;;;;;;5004428;28;20187;-80
2022/04/28 00:02:30;;;;;;;11.77;10.15;;;;;;;;;;5003619;28;20210;-80
2022/04/28 00:04:56;;;;;;;11.10;9.38;;;;;;;;;;5001083;28;20183;-80
2022/04/28 00:07:22;;;;;;;10.65;8.65;;;;;;;;;;4988280;28;20189;-80
2022/04/28 00:09:48;;;;;;;11.82;8.90;;;;;;;;;;5002621;28;20183;-80
2022/04/28 00:12:14;;;;;;;11.70;9.25;;;;;;;;;;5003191;28;20270;-80
2022/04/28 00:14:42;;;;;;;17.30;10.80;;;;;;;;;;5005899;28;20175;-79
2022/04/28 00:17:09;;;;;;;10.98;8.55;;;;;;;;;;5001818;28;20569;-80
2022/04/28 00:19:35;;;;;;;14.93;9.88;;;;;;;;;;5001672;28;20187;-79
2022/04/28 00:22:01;;;;;;;14.23;10.57;;;;;;;;;;5002075;28;20218;-80
2022/04/28 00:24:27;;;;;;;18.17;10.90;;;;;;;;;;5002798;28;20194;-80
2022/04/28 00:26:53;;;;;;;15.45;11.35;;;;;;;;;;5004382;28;20414;-79
2022/04/28 00:29:20;;;;;;;13.02;11.27;;;;;;;;;;5004844;28;20186;-80
2022/04/28 00:31:46;;;;;;;12.20;9.85;;;;;;;;;;5001727;28;20590;-79
2022/04/28 00:34:12;;;;;;;14.43;10.77;;;;;;;;;;4987132;28;20183;-79
2022/04/28 00:36:38;;;;;;;15.83;10.73;;;;;;;;;;4987230;28;20541;-79
2022/04/28 00:39:04;;;;;;;15.15;10.55;;;;;;;;;;5003992;28;20418;-80
2022/04/28 00:41:30;;;;;;;15.40;11.53;;;;;;;;;;4973237;28;20200;-80
2022/04/28 00:43:57;;;;;;;13.05;10.25;;;;;;;;;;4990447;28;20450;-79
2022/04/28 00:46:23;;;;;;;15.10;9.88;;;;;;;;;;4994782;28;20171;-80
2022/04/28 00:51:34;;;;;;;14.40;11.50;;;;;;;;;;4992774;28;20242;-80
2022/04/28 00:54:01;;;;;;;12.35;10.65;;;;;;;;;;5003971;28;20234;-80
2022/04/28 00:56:28;;;;;;;13.68;11.43;;;;;;;;;;5003105;28;20242;-80
2022/04/28 00:58:54;;;;;;;14.27;10.45;;;;;;;;;;5001532;28;20186;-80
2022/04/28 01:01:20;;;;;;;14.40;11.30;;;;;;;;;;4987460;28;20203;-80
2022/04/28 01:03:46;;;;;;;14.33;10.23;;;;;;;;;;5000132;28;20261;-80
2022/04/28 01:06:13;;;;;;;16.35;10.35;;;;;;;;;;5001774;28;20510;-79
2022/04/28 01:08:39;;;;;;;15.82;10.68;;;;;;;;;;5004606;28;20174;-79
2022/04/28 01:11:06;;;;;;;13.80;9.90;;;;;;;;;;4983749;28;20219;-79
2022/04/28 01:13:32;;;;;;;14.48;10.55;;;;;;;;;;4986409;28;20691;-80
2022/04/28 01:15:58;;;;;;;15.23;11.13;;;;;;;;;;5001154;28;20259;-80
2022/04/28 01:18:24;;;;;;;12.95;10.60;;;;;;;;;;4999992;28;20187;-79
2022/04/28 01:20:50;;;;;;;14.93;10.65;;;;;;;;;;4985760;28;20195;-79
2022/04/28 01:23:18;;;;;;;15.23;10.25;;;;;;;;;;4985519;28;20632;-79
2022/04/28 01:25:44;;;;;;;16.15;10.85;;;;;;;;;;5002557;28;20205;-79
2022/04/28 01:28:10;;;;;;;14.55;11.20;;;;;;;;;;5000714;28;20196;-79
2022/04/28 01:30:37;;;;;;;15.00;10.80;;;;;;;;;;5001136;28;20184;-79
2022/04/28 01:33:03;;;;;;;15.38;10.43;;;;;;;;;;5001823;28;20175;-80
2022/04/28 01:35:29;;;;;;;14.23;11.13;;;;;;;;;;5002622;28;20181;-80
2022/04/28 01:37:56;;;;;;;33.10;14.27;;;;;;;;;;5000841;28;20233;-80
2022/04/28 01:40:22;;;;;;;17.05;11.90;;;;;;;;;;5000054;28;20206;-79
2022/04/28 01:42:48;;;;;;;15.20;9.93;;;;;;;;;;5001194;28;20199;-79
2022/04/28 01:45:14;;;;;;;16.33;11.05;;;;;;;;;;5001644;28;20668;-80
2022/04/28 01:47:41;;;;;;;16.25;11.60;;;;;;;;;;4971425;28;20684;-80
2022/04/28 01:50:09;;;;;;;14.15;10.60;;;;;;;;;;5000138;28;20187;-80
2022/04/28 01:55:20;;;;;;;13.38;9.70;;;;;;;;;;5001336;28;20218;-79
2022/04/28 01:57:46;;;;;;;17.42;12.52;;;;;;;;;;5000492;28;20675;-79
2022/04/28 02:00:12;;;;;;;18.00;10.85;;;;;;;;;;4983302;28;20183;-80
2022/04/28 02:02:38;;;;;;;16.77;11.18;;;;;;;;;;4993779;28;20290;-80
2022/04/28 02:05:04;;;;;;;12.18;9.82;;;;;;;;;;4995501;28;20195;-80
2022/04/28 02:07:30;;;;;;;20.67;11.00;;;;;;;;;;4972124;28;20256;-80
2022/04/28 02:09:57;;;;;;;16.55;10.88;;;;;;;;;;4991326;28;20191;-79
2022/04/28 02:12:24;;;;;;;17.95;11.45;;;;;;;;;;4983917;28;20183;-79
2022/04/28 02:14:50;;;;;;;16.98;10.48;;;;;;;;;;5003706;28;20178;-80
2022/04/28 02:17:19;;;;;;;18.70;11.15;;;;;;;;;;4971884;28;20230;-79
2022/04/28 02:19:45;;;;;;;20.23;11.95;;;;;;;;;;4998722;28;20186;-79
2022/04/28 02:22:11;;;;;;;15.77;10.30;;;;;;;;;;5001013;28;20210;-79
2022/04/28 02:24:37;;;;;;;18.27;11.30;;;;;;;;;;4989545;28;20178;-79
2022/04/28 02:27:03;;;;;;;19.90;11.27;;;;;;;;;;5006200;28;20235;-79
2022/04/28 02:29:30;;;;;;;18.48;10.52;;;;;;;;;;4975214;28;20775;-80
2022/04/28 02:31:56;;;;;;;19.75;9.93;;;;;;;;;;5000207;28;20198;-79
2022/04/28 02:34:22;;;;;;;14.02;9.45;;;;;;;;;;5003330;28;20708;-79
2022/04/28 02:36:48;;;;;;;17.00;11.50;;;;;;;;;;5004454;28;20187;-80
2022/04/28 02:39:14;;;;;;;18.17;11.90;;;;;;;;;;5005030;28;20515;-80
2022/04/28 02:41:41;;;;;;;17.70;10.98;;;;;;;;;;4974773;28;20208;-79
2022/04/28 02:44:07;;;;;;;15.98;11.55;;;;;;;;;;5001211;28;20186;-79
2022/04/28 02:46:33;;;;;;;17.03;10.07;;;;;;;;;;4990188;28;20270;-79
2022/04/28 02:48:59;;;;;;;16.70;9.40;;;;;;;;;;5003002;28;20498;-79
2022/04/28 02:51:25;;;;;;;19.88;10.95;;;;;;;;;;5004203;28;20180;-80
2022/04/28 02:53:51;;;;;;;17.52;11.02;;;;;;;;;;4989687;28;20175;-80
2022/04/28 02:56:17;;;;;;;20.08;11.57;;;;;;;;;;4975769;28;20187;-80
2022/04/28 02:58:43;;;;;;;19.38;11.35;;;;;;;;;;4999087;28;20209;-79
2022/04/28 03:01:09;;;;;;;19.17;9.48;;;;;;;;;;5003412;28;20210;-79
2022/04/28 03:03:35;;;;;;;17.10;10.43;;;;;;;;;;5003158;28;20179;-79
2022/04/28 03:11:31;;;;;;;16.67;10.57;;;;;;;;;;5005528;28;20241;-79
2022/04/28 03:13:57;;;;;;;18.70;11.43;;;;;;;;;;5003816;28;20191;-80
2022/04/28 03:16:24;;;;;;;18.15;11.63;;;;;;;;;;4989402;28;20249;-80
2022/04/28 03:18:50;;;;;;;20.08;11.63;;;;;;;;;;5002996;28;20187;-79
2022/04/28 03:21:16;;;;;;;17.10;10.75;;;;;;;;;;4970875;28;20680;-79
2022/04/28 03:23:42;;;;;;;20.40;13.07;;;;;;;;;;5004808;28;20190;-79
2022/04/28 03:26:08;;;;;;;18.92;11.30;;;;;;;;;;4994743;28;20592;-79
2022/04/28 03:28:35;;;;;;;21.67;10.25;;;;;;;;;;4990263;28;20214;-79
2022/04/28 03:31:02;;;;;;;17.05;11.85;;;;;;;;;;4993737;28;20183;-79
2022/04/28 03:33:28;;;;;;;16.52;9.60;;;;;;;;;;5003061;28;20188;-79
2022/04/28 03:35:54;;;;;;;14.60;9.98;;;;;;;;;;5004878;28;20190;-79
2022/04/28 03:38:20;;;;;;;18.73;11.88;;;;;;;;;;5005681;28;20171;-79
2022/04/28 03:40:46;;;;;;;16.55;10.85;;;;;;;;;;5002987;28;20283;-79
2022/04/28 03:43:12;;;;;;;21.55;10.77;;;;;;;;;;4990542;28;20254;-79
2022/04/28 03:45:39;;;;;;;15.23;10.55;;;;;;;;;;5003431;28;20187;-79
2022/04/28 03:48:09;;;;;;;17.15;11.70;;;;;;;;;;5004450;28;20279;-79
2022/04/28 03:50:36;;;;;;;20.73;11.90;;;;;;;;;;5005749;28;20234;-79
2022/04/28 03:53:02;;;;;;;17.90;11.45;;;;;;;;;;5002922;28;20191;-79
2022/04/28 03:55:28;;;;;;;18.30;11.27;;;;;;;;;;5003041;28;20241;-79
2022/04/28 03:57:54;;;;;;;17.25;11.35;;;;;;;;;;5002586;28;20191;-79
2022/04/28 04:00:20;;;;;;;23.08;12.75;;;;;;;;;;4986004;28;20183;-79
2022/04/28 04:02:47;;;;;;;19.67;11.40;;;;;;;;;;4989127;28;20198;-79
2022/04/28 04:05:13;;;;;;;17.27;11.48;;;;;;;;;;5002014;28;20179;-79
2022/04/28 04:07:39;;;;;;;16.75;11.80;;;;;;;;;;5002708;28;20175;-79
2022/04/28 04:10:09;;;;;;;14.05;11.13;;;;;;;;;;5002392;28;20660;-79
2022/04/28 04:12:35;;;;;;;21.02;11.18;;;;;;;;;;5002289;28;20192;-79
2022/04/28 04:15:02;;;;;;;20.05;12.10;;;;;;;;;;5004834;28;20185;-79
2022/04/28 04:17:28;;;;;;;18.77;12.23;;;;;;;;;;5003904;28;20290;-78
2022/04/28 04:19:54;;;;;;;22.00;12.00;;;;;;;;;;5001871;28;20191;-79
2022/04/28 04:22:20;;;;;;;16.67;11.32;;;;;;;;;;4988518;28;20202;-78
2022/04/28 04:24:46;;;;;;;20.43;11.10;;;;;;;;;;4988544;28;20194;-78
2022/04/28 04:27:15;;;;;;;24.17;11.50;;;;;;;;;;4984940;28;20435;-79
2022/04/28 04:29:41;;;;;;;20.70;11.30;;;;;;;;;;4972864;28;20420;-79
2022/04/28 04:32:24;;;;;;;15.43;11.70;;;;;;;;;;5001280;28;20218;-78
2022/04/28 04:34:50;;;;;;;19.63;10.57;;;;;;;;;;5001235;28;20520;-79
2022/04/28 04:37:16;;;;;;;22.08;12.40;;;;;;;;;;5003161;28;20187;-79
2022/04/28 04:39:42;;;;;;;17.50;10.88;;;;;;;;;;5000709;28;20183;-79
2022/04/28 04:42:09;;;;;;;21.77;11.90;;;;;;;;;;4985222;28;20747;-79
2022/04/28 04:44:35;;;;;;;18.20;10.65;;;;;;;;;;4973452;28;20259;-79
2022/04/28 04:47:01;;;;;;;21.70;12.63;;;;;;;;;;5000122;28;20191;-79
2022/04/28 04:49:27;;;;;;;25.50;12.68;;;;;;;;;;5001428;28;20210;-79
2022/04/28 04:51:53;;;;;;;18.73;10.95;;;;;;;;;;5001234;28;20199;-79
2022/04/28 04:54:20;;;;;;;15.95;12.10;;;;;;;;;;5001501;28;20198;-79
2022/04/28 04:56:46;;;;;;;20.38;12.13;;;;;;;;;;4988401;28;20179;-79
2022/04/28 04:59:12;;;;;;;18.05;12.13;;;;;;;;;;5001445;28;20551;-79
2022/04/28 05:01:38;;;;;;;22.52;13.18;;;;;;;;;;5001578;28;20275;-79
2022/04/28 05:04:04;;;;;;;16.20;11.30;;;;;;;;;;5000628;28;20191;-79
2022/04/28 05:06:30;;;;;;;18.30;11.85;;;;;;;;;;4985500;28;20195;-79
2022/04/28 05:08:57;;;;;;;25.20;13.90;;;;;;;;;;5003335;28;20200;-79
2022/04/28 05:11:23;;;;;;;20.48;13.23;;;;;;;;;;5002576;28;20185;-79
2022/04/28 05:13:49;;;;;;;16.60;11.30;;;;;;;;;;4987036;28;20187;-79
2022/04/28 05:16:15;;;;;;;17.27;11.32;;;;;;;;;;5000760;28;20219;-79
2022/04/28 05:18:41;;;;;;;21.23;12.82;;;;;;;;;;5000400;28;20190;-79
2022/04/28 05:21:07;;;;;;;18.07;11.63;;;;;;;;;;5002251;28;20234;-79
2022/04/28 05:23:33;;;;;;;21.80;13.20;;;;;;;;;;4972022;28;20419;-79
2022/04/28 05:25:59;;;;;;;22.38;12.65;;;;;;;;;;4999318;28;20449;-79
2022/04/28 05:28:28;;;;;;;18.45;12.25;;;;;;;;;;4987222;28;20183;-78
2022/04/28 05:30:55;;;;;;;24.48;11.40;;;;;;;;;;4986785;28;20245;-79
2022/04/28 05:33:22;;;;;;;20.35;13.45;;;;;;;;;;5001374;28;20270;-79
2022/04/28 05:35:48;;;;;;;20.42;11.80;;;;;;;;;;4986113;28;20171;-79
2022/04/28 05:38:14;;;;;;;21.08;12.30;;;;;;;;;;5001086;28;20229;-79
2022/04/28 05:40:41;;;;;;;18.45;12.55;;;;;;;;;;4986576;28;20220;-79
2022/04/28 05:45:52;;;;;;;19.77;12.93;;;;;;;;;;5000338;28;20198;-78
2022/04/28 05:48:19;;;;;;;19.90;12.37;;;;;;;;;;4983488;28;20179;-78
2022/04/28 05:50:45;;;;;;;20.08;12.68;;;;;;;;;;5000104;28;20442;-79
2022/04/28 05:53:11;;;;;;;18.13;11.73;;;;;;;;;;4983054;28;20187;-79
2022/04/28 05:55:38;;;;;;;21.38;13.75;;;;;;;;;;5000601;28;20207;-80
2022/04/28 05:58:04;;;;;;;20.33;13.85;;;;;;;;;;4987186;28;20203;-79
2022/04/28 06:00:31;;;;;;;17.40;12.15;;;;;;;;;;4984940;28;20187;-79
2022/04/28 06:02:57;;;;;;;20.85;12.07;;;;;;;;;;5002321;28;20225;-79
2022/04/28 06:05:23;;;;;;;16.25;11.30;;;;;;;;;;5001233;28;20194;-79
2022/04/28 06:07:49;;;;;;;25.35;13.20;;;;;;;;;;4999847;28;20183;-79
2022/04/28 06:10:15;;;;;;;21.48;12.32;;;;;;;;;;4982922;28;20186;-79
2022/04/28 06:12:41;;;;;;;19.52;12.48;;;;;;;;;;5000935;28;20198;-79
2022/04/28 06:15:08;;;;;;;18.70;11.38;;;;;;;;;;5002228;28;20283;-79
2022/04/28 06:17:34;;;;;;;19.77;12.95;;;;;;;;;;5002540;28;20734;-79
2022/04/28 06:20:00;;;;;;;17.95;11.57;;;;;;;;;;4999547;28;20186;-79
2022/04/28 06:22:27;;;;;;;22.20;12.83;;;;;;;;;;5000423;28;20237;-80
2022/04/28 06:24:53;;;;;;;20.08;13.60;;;;;;;;;;5000261;28;20920;-80
2022/04/28 06:27:19;;;;;;;17.15;12.60;;;;;;;;;;4983682;28;20190;-79
2022/04/28 06:29:48;;;;;;;18.42;13.10;;;;;;;;;;5003703;28;20172;-80
2022/04/28 06:32:15;;;;;;;19.60;12.50;;;;;;;;;;5001441;28;20190;-80
2022/04/28 06:34:41;;;;;;;17.33;12.50;;;;;;;;;;4982522;28;20660;-79
2022/04/28 06:37:07;;;;;;;16.55;13.32;;;;;;;;;;4973704;28;20225;-79
2022/04/28 06:39:33;;;;;;;17.67;12.82;;;;;;;;;;4999916;28;20657;-79
2022/04/28 06:41:59;;;;;;;16.95;12.77;;;;;;;;;;4984661;28;20719;-79
2022/04/28 06:44:25;;;;;;;21.07;13.77;;;;;;;;;;5002346;28;20175;-79
2022/04/28 06:46:51;;;;;;;24.03;12.80;;;;;;;;;;5000324;28;20433;-79
2022/04/28 06:49:17;;;;;;;19.17;13.25;;;;;;;;;;4999687;28;20446;-79
2022/04/28 06:51:43;;;;;;;17.40;12.57;;;;;;;;;;4999288;28;20200;-81
2022/04/28 06:54:09;;;;;;;21.23;13.60;;;;;;;;;;4984094;28;20532;-80
2022/04/28 06:56:35;;;;;;;21.75;13.00;;;;;;;;;;5002795;28;20171;-80
2022/04/28 06:59:01;;;;;;;19.60;14.30;;;;;;;;;;4986215;28;20242;-80
2022/04/28 07:01:27;;;;;;;19.63;13.70;;;;;;;;;;4999239;28;20478;-80
2022/04/28 07:03:53;;;;;;;17.83;12.20;;;;;;;;;;4981836;28;20466;-79
2022/04/28 07:06:19;;;;;;;21.50;14.93;;;;;;;;;;4982269;28;20199;-80
2022/04/28 07:08:45;;;;;;;19.67;15.30;;;;;;;;;;4985749;28;20171;-80
2022/04/28 07:11:11;;;;;;;28.70;15.70;;;;;;;;;;5002058;28;20437;-81
2022/04/28 07:13:37;;;;;;;20.88;14.00;;;;;;;;;;5003781;28;20431;-81
2022/04/28 07:16:06;;;;;;;21.83;14.07;;;;;;;;;;5003602;28;20215;-81
2022/04/28 07:18:32;;;;;;;18.48;14.85;;;;;;;;;;4987837;28;20251;-81
2022/04/28 07:21:02;;;;;;;20.67;14.67;;;;;;;;;;5004826;28;20179;-81
2022/04/28 07:23:28;;;;;;;19.40;13.35;;;;;;;;;;5004524;28;20418;-81
2022/04/28 07:25:54;;;;;;;24.55;14.27;;;;;;;;;;4986005;28;20207;-81
2022/04/28 07:28:20;;;;;;;18.30;12.63;;;;;;;;;;4990280;28;20175;-81
2022/04/28 07:30:46;;;;;;;19.85;15.30;;;;;;;;;;5003412;28;20183;-81
2022/04/28 07:33:12;;;;;;;19.33;14.93;;;;;;;;;;5004223;28;20192;-81
2022/04/28 07:35:38;;;;;;;24.77;15.17;;;;;;;;;;5005375;28;20202;-81
2022/04/28 07:38:04;;;;;;;21.00;14.25;;;;;;;;;;5003268;28;20484;-80
2022/04/28 07:40:30;;;;;;;21.75;15.15;;;;;;;;;;5002681;28;20179;-81
2022/04/28 07:42:57;;;;;;;18.70;14.10;;;;;;;;;;4989148;28;20213;-81
2022/04/28 07:45:23;;;;;;;18.77;14.77;;;;;;;;;;4987604;28;20666;-80
2022/04/28 07:47:50;;;;;;;20.80;13.45;;;;;;;;;;5006400;28;20575;-82
2022/04/28 07:50:16;;;;;;;18.88;14.52;;;;;;;;;;5004514;28;20182;-80
2022/04/28 07:52:42;;;;;;;18.75;13.65;;;;;;;;;;4989970;28;20183;-81
2022/04/28 07:55:09;;;;;;;18.23;14.60;;;;;;;;;;4988928;28;20187;-81
2022/04/28 07:57:35;;;;;;;16.90;15.10;;;;;;;;;;5002811;28;20212;-81
2022/04/28 08:00:02;;;;;;;18.13;15.25;;;;;;;;;;5004928;28;20176;-80
2022/04/28 08:02:29;;;;;;;19.65;14.40;;;;;;;;;;5003946;28;20630;-83
2022/04/28 08:04:55;;;;;;;22.02;14.90;;;;;;;;;;5002353;28;20179;-81
2022/04/28 08:07:21;;;;;;;14.52;12.77;;;;;;;;;;4988791;28;20193;-81
2022/04/28 08:09:48;;;;;;;20.75;15.50;;;;;;;;;;4988552;28;20184;-82
2022/04/28 08:12:14;;;;;;;17.30;11.80;;;;;;;;;;4986325;28;20225;-81
2022/04/28 08:14:40;;;;;;;18.40;13.50;;;;;;;;;;4988486;28;20571;-82
2022/04/28 08:17:06;;;;;;;19.63;12.68;;;;;;;;;;5001111;28;20231;-81
2022/04/28 08:19:33;;;;;;;16.25;14.13;;;;;;;;;;4984955;28;20183;-81
2022/04/28 08:21:59;;;;;;;15.77;13.10;;;;;;;;;;5000124;28;20738;-82
2022/04/28 08:24:25;;;;;;;19.20;13.85;;;;;;;;;;4986351;28;20190;-83
2022/04/28 08:26:52;;;;;;;16.63;13.07;;;;;;;;;;5005523;28;20254;-82
2022/04/28 08:29:18;;;;;;;14.93;12.50;;;;;;;;;;5003568;28;20451;-82
2022/04/28 08:31:45;;;;;;;15.50;13.00;;;;;;;;;;4988811;28;20190;-82
2022/04/28 08:34:14;;;;;;;18.83;12.75;;;;;;;;;;5001332;28;20195;-82
2022/04/28 08:36:43;;;;;;;17.75;13.27;;;;;;;;;;5003957;28;20747;-83
2022/04/28 08:39:09;;;;;;;15.55;12.68;;;;;;;;;;5004152;28;20205;-81
2022/04/28 08:41:36;;;;;;;15.98;13.70;;;;;;;;;;5004293;28;20621;-81
2022/04/28 08:44:03;;;;;;;16.95;13.05;;;;;;;;;;5002632;28;20242;-83
2022/04/28 08:49:16;;;;;;;21.92;13.60;;;;;;;;;;4991799;28;20218;-82
2022/04/28 08:51:43;;;;;;;16.48;13.00;;;;;;;;;;4985279;28;20187;-84
2022/04/28 08:54:10;;;;;;;15.60;12.13;;;;;;;;;;4977962;28;20199;-82
2022/04/28 08:56:36;;;;;;;16.80;13.13;;;;;;;;;;4984974;28;20195;-82
2022/04/28 08:59:02;;;;;;;14.15;11.90;;;;;;;;;;4996937;28;20191;-82
2022/04/28 09:01:28;;;;;;;15.70;13.95;;;;;;;;;;4999712;28;20687;-81
2022/04/28 09:03:55;;;;;;;13.38;11.98;;;;;;;;;;4979136;28;20194;-82
2022/04/28 09:06:28;;;;;;;14.18;12.70;;;;;;;;;;4976287;28;20184;-81
2022/04/28 09:08:55;;;;;;;15.13;11.15;;;;;;;;;;4999335;28;20167;-85
2022/04/28 09:11:23;;;;;;;15.55;13.20;;;;;;;;;;4986379;28;20183;-83
2022/04/28 09:14:10;;;;;;;17.15;12.57;;;;;;;;;;4996654;28;20211;-82
2022/04/28 09:16:38;;;;;;;13.35;11.95;;;;;;;;;;4986311;28;20219;-81
2022/04/28 09:19:04;;;;;;;12.60;11.30;;;;;;;;;;4999421;28;20191;-81
2022/04/28 09:21:34;;;;;;;13.75;11.65;;;;;;;;;;4981694;28;20251;-83
2022/04/28 09:24:00;;;;;;;15.43;11.93;;;;;;;;;;4981651;28;20183;-82
2022/04/28 09:26:26;;;;;;;11.20;10.05;;;;;;;;;;5001556;28;20175;-82
2022/04/28 09:28:57;;;;;;;15.02;12.85;;;;;;;;;;4991844;28;20179;-82
2022/04/28 09:31:23;;;;;;;14.98;11.20;;;;;;;;;;4996470;28;20186;-81
2022/04/28 09:33:49;;;;;;;14.65;11.57;;;;;;;;;;4999564;28;20223;-80
2022/04/28 09:36:16;;;;;;;13.20;11.80;;;;;;;;;;4997382;28;20194;-83
2022/04/28 09:38:42;;;;;;;16.02;11.90;;;;;;;;;;4972514;28;20180;-83
2022/04/28 09:43:57;;;;;;;13.18;11.15;;;;;;;;;;4988486;28;20195;-82
2022/04/28 09:46:23;;;;;;;12.75;11.45;;;;;;;;;;4996583;28;20647;-83
2022/04/28 09:48:50;;;;;;;14.23;11.85;;;;;;;;;;4999537;28;20570;-83
2022/04/28 09:51:20;;;;;;;12.73;11.52;;;;;;;;;;4996827;28;20216;-84
2022/04/28 09:53:48;;;;;;;11.57;10.43;;;;;;;;;;4982488;28;20180;-82
2022/04/28 09:56:16;;;;;;;11.90;10.18;;;;;;;;;;4996175;28;20207;-84
2022/04/28 09:58:42;;;;;;;10.35;9.30;;;;;;;;;;4985953;28;20183;-84
2022/04/28 10:01:09;;;;;;;9.77;8.48;;;;;;;;;;4983281;28;20269;-81
2022/04/28 10:03:35;;;;;;;10.30;9.30;;;;;;;;;;4982588;28;20187;-81
2022/04/28 10:06:08;;;;;;;10.90;9.48;;;;;;;;;;4981105;28;20175;-81
2022/04/28 10:08:35;;;;;;;9.45;8.13;;;;;;;;;;4985428;28;20184;-80
2022/04/28 10:11:03;;;;;;;9.73;8.75;;;;;;;;;;4991556;28;20646;-81
2022/04/28 10:13:30;;;;;;;8.40;7.60;;;;;;;;;;4985843;28;20199;-82
2022/04/28 10:15:58;;;;;;;10.50;9.40;;;;;;;;;;4985602;28;20224;-82
2022/04/28 10:18:28;;;;;;;10.90;9.30;;;;;;;;;;5000689;28;20195;-82
2022/04/28 10:20:58;;;;;;;9.52;8.57;;;;;;;;;;5003605;28;20171;-83
2022/04/28 10:34:30;;;;;;;8.05;7.10;;;;;;;;;;4995380;28;20216;-83
2022/04/28 10:37:01;;;;;;;8.50;7.80;;;;;;;;;;4985690;28;20240;-81
2022/04/28 10:39:39;;;;;;;7.80;7.20;;;;;;;;;;5000989;28;20233;-82
2022/04/28 10:42:35;;;;;;;9.07;7.72;;;;;;;;;;4996925;28;20232;-81
2022/04/28 10:45:05;;;;;;;8.48;7.50;;;;;;;;;;4968093;28;20247;-81
2022/04/28 10:47:35;;;;;;;9.80;6.97;;;;;;;;;;5001693;28;20177;-83
2022/04/28 10:50:01;;;;;;;8.20;7.35;;;;;;;;;;4989879;28;20173;-81
2022/04/28 10:52:27;;;;;;;7.32;6.65;;;;;;;;;;4989324;28;20276;-82
2022/04/28 10:54:54;;;;;;;7.38;6.22;;;;;;;;;;5004117;28;20192;-84
2022/04/28 10:57:31;;;;;;;6.82;6.20;;;;;;;;;;4982536;28;20201;-80
2022/04/28 10:59:58;;;;;;;7.13;6.43;;;;;;;;;;5006403;28;20177;-82
2022/04/28 11:02:24;;;;;;;10.48;7.43;;;;;;;;;;4989356;28;20207;-82
2022/04/28 11:04:52;;;;;;;6.60;5.70;;;;;;;;;;4985725;28;20233;-81
2022/04/28 11:07:24;;;;;;;5.88;5.00;;;;;;;;;;4989054;28;20464;-81
2022/04/28 11:09:55;;;;;;;12.23;5.47;;;;;;;;;;4999125;28;20549;-82
2022/04/28 11:12:22;;;;;;;5.25;4.75;;;;;;;;;;4970093;28;20194;-81
2022/04/28 11:14:59;;;;;;;5.03;4.50;;;;;;;;;;5005726;28;20181;-81
2022/04/28 11:17:28;;;;;;;5.97;4.30;;;;;;;;;;4999147;28;20220;-82
2022/04/28 11:19:54;;;;;;;6.07;5.28;;;;;;;;;;4998922;28;20297;-82
2022/04/28 11:22:20;;;;;;;4.03;3.72;;;;;;;;;;4999080;28;20240;-81
2022/04/28 11:24:46;;;;;;;5.13;4.70;;;;;;;;;;4982647;28;20206;-81
2022/04/28 11:27:19;;;;;;;5.45;4.43;;;;;;;;;;4981809;28;20189;-82
2022/04/28 11:29:46;;;;;;;4.20;3.90;;;;;;;;;;5002400;28;20177;-83
2022/04/28 11:32:13;;;;;;;5.95;4.07;;;;;;;;;;4998183;28;20198;-81
2022/04/28 11:34:40;;;;;;;7.68;3.70;;;;;;;;;;4988143;28;20198;-81
2022/04/28 11:37:16;;;;;;;4.45;4.05;;;;;;;;;;5002488;28;20195;-82
2022/04/28 11:39:45;;;;;;;4.20;3.80;;;;;;;;;;4999565;28;20183;-82
2022/04/28 11:42:13;;;;;;;3.80;3.50;;;;;;;;;;4981246;28;20214;-84
2022/04/28 11:44:55;;;;;;;4.40;4.00;;;;;;;;;;4974686;28;20201;-83
2022/04/28 11:47:22;;;;;;;4.32;4.03;;;;;;;;;;5001338;28;20210;-85
2022/04/28 11:49:52;;;;;;;4.00;3.70;;;;;;;;;;4988287;28;20194;-82
2022/04/28 11:52:21;;;;;;;5.07;3.75;;;;;;;;;;4999377;28;20194;-80
2022/04/28 11:55:08;;;;;;;3.92;3.63;;;;;;;;;;5002204;28;20562;-82
2022/04/28 11:57:36;;;;;;;3.33;3.10;;;;;;;;;;4970424;28;20542;-85
2022/04/28 12:00:03;;;;;;;3.53;3.20;;;;;;;;;;4980942;28;20178;-82
2022/04/28 12:02:33;;;;;;;3.55;3.33;;;;;;;;;;4995843;28;20461;-82
2022/04/28 12:05:00;;;;;;;4.57;3.47;;;;;;;;;;4996872;28;20187;-80
2022/04/28 12:07:28;;;;;;;4.10;3.47;;;;;;;;;;4988194;28;20274;-82
2022/04/28 12:15:24;;;;;;;4.40;3.20;;;;;;;;;;4984778;28;20254;-81
2022/04/28 12:21:03;;;;;;;4.00;2.93;;;;;;;;;;4999287;28;20464;-84
2022/04/28 12:23:33;;;;;;;4.10;3.20;;;;;;;;;;4988807;28;20442;-81
2022/04/28 12:26:06;;;;;;;3.30;3.00;;;;;;;;;;4987536;28;20410;-83
2022/04/28 12:28:33;;;;;;;4.50;3.30;;;;;;;;;;4987561;28;20420;-82
2022/04/28 12:30:59;;;;;;;3.57;3.27;;;;;;;;;;4987163;28;20489;-81
2022/04/28 12:33:28;;;;;;;5.27;3.27;;;;;;;;;;4983660;28;20440;-82
2022/04/28 12:35:59;;;;;;;3.90;3.60;;;;;;;;;;4987884;28;20419;-81
2022/04/28 12:38:28;;;;;;;5.30;3.17;;;;;;;;;;4973085;28;20447;-82
2022/04/28 12:40:55;;;;;;;4.07;3.60;;;;;;;;;;4972039;28;20490;-81
2022/04/28 12:43:38;;;;;;;3.40;3.10;;;;;;;;;;4969296;28;20475;-86
2022/04/28 12:46:06;;;;;;;4.70;3.17;;;;;;;;;;4987105;28;20449;-85
2022/04/28 12:48:33;;;;;;;4.23;3.60;;;;;;;;;;4984838;28;20542;-87
2022/04/28 12:51:09;;;;;;;3.57;3.30;;;;;;;;;;4969570;28;20430;-88
2022/04/28 12:53:35;;;;;;;3.37;2.80;;;;;;;;;;4987259;28;20402;-80
2022/04/28 12:56:07;;;;;;;5.63;3.10;;;;;;;;;;4986973;28;20482;-80
2022/04/28 12:58:40;;;;;;;3.47;3.17;;;;;;;;;;4972061;28;20449;-82
2022/04/28 13:01:18;;;;;;;8.20;3.13;;;;;;;;;;4986640;28;20414;-82
2022/04/28 13:03:53;;;;;;;5.30;2.80;;;;;;;;;;4970431;28;20553;-82
2022/04/28 13:06:19;;;;;;;2.73;2.40;;;;;;;;;;4975573;28;20437;-82
2022/04/28 13:08:45;;;;;;;4.93;4.53;;;;;;;;;;4989391;28;20420;-81
2022/04/28 13:11:12;;;;;;;3.07;2.87;;;;;;;;;;4986443;28;20443;-84
2022/04/28 13:13:38;;;;;;;2.97;2.77;;;;;;;;;;4991780;28;20406;-86
2022/04/28 13:16:04;;;;;;;4.10;2.70;;;;;;;;;;4978650;28;20471;-83
2022/04/28 13:18:30;;;;;;;4.97;3.10;;;;;;;;;;4966915;28;20807;-81
2022/04/28 13:20:56;;;;;;;3.27;2.97;;;;;;;;;;4986989;28;20396;-82
2022/04/28 13:23:22;;;;;;;5.70;2.60;;;;;;;;;;4987076;28;20414;-78
2022/04/28 13:25:48;;;;;;;3.97;3.37;;;;;;;;;;4971450;28;20429;-80
2022/04/28 13:28:14;;;;;;;3.57;3.23;;;;;;;;;;4986226;28;20418;-79
2022/04/28 13:30:41;;;;;;;4.00;3.03;;;;;;;;;;4984978;28;20448;-78
2022/04/28 13:33:07;;;;;;;5.27;3.47;;;;;;;;;;4967044;28;20408;-78
2022/04/28 13:35:34;;;;;;;3.37;3.00;;;;;;;;;;4989143;28;20419;-79
2022/04/28 13:38:00;;;;;;;2.70;2.50;;;;;;;;;;4970962;28;20443;-79
2022/04/28 13:40:26;;;;;;;3.90;3.30;;;;;;;;;;4971824;28;20921;-81
2022/04/28 13:42:52;;;;;;;4.17;3.77;;;;;;;;;;4985602;28;20482;-81
2022/04/28 13:45:18;;;;;;;2.43;2.30;;;;;;;;;;4982258;28;20423;-79
2022/04/28 13:47:44;;;;;;;3.50;3.20;;;;;;;;;;4989464;28;20390;-78
2022/04/28 13:50:10;;;;;;;4.70;3.63;;;;;;;;;;4985805;28;20455;-80
2022/04/28 13:52:36;;;;;;;3.30;2.90;;;;;;;;;;4986660;28;20451;-80
2022/04/28 13:55:02;;;;;;;3.80;2.83;;;;;;;;;;4985895;28;20461;-79
2022/04/28 13:57:28;;;;;;;5.93;2.93;;;;;;;;;;4966141;28;20406;-79
2022/04/28 13:59:54;;;;;;;3.67;3.30;;;;;;;;;;4978985;28;20482;-87
2022/04/28 14:02:20;;;;;;;5.07;3.07;;;;;;;;;;4988325;28;20508;-80
2022/04/28 14:04:46;;;;;;;4.30;3.50;;;;;;;;;;4984672;28;20512;-86
2022/04/28 14:07:12;;;;;;;3.03;2.70;;;;;;;;;;4985466;28;20431;-80
2022/04/28 14:09:38;;;;;;;4.37;2.90;;;;;;;;;;4968860;28;20465;-82
2022/04/28 14:12:04;;;;;;;4.97;2.90;;;;;;;;;;4967775;28;20437;-78
2022/04/28 14:14:31;;;;;;;2.43;2.23;;;;;;;;;;4952422;29;20439;-79
2022/04/28 14:16:57;;;;;;;4.03;2.57;;;;;;;;;;4987566;28;20453;-78
2022/04/28 14:19:23;;;;;;;3.53;3.23;;;;;;;;;;4987951;28;20439;-78
2022/04/28 14:21:49;;;;;;;3.87;2.80;;;;;;;;;;4988586;28;20528;-78
2022/04/28 14:24:14;;;;;;;5.20;2.93;;;;;;;;;;5001187;28;20431;-80
2022/04/28 14:26:40;;;;;;;3.10;2.80;;;;;;;;;;5003938;28;20450;-81
2022/04/28 14:29:08;;;;;;;4.90;3.40;;;;;;;;;;5000407;28;20438;-79
2022/04/28 14:31:34;;;;;;;2.60;2.40;;;;;;;;;;5000546;28;20509;-78
2022/04/28 14:34:01;;;;;;;3.47;2.60;;;;;;;;;;4984859;28;20471;-78
2022/04/28 14:36:27;;;;;;;2.53;2.27;;;;;;;;;;5000588;28;20445;-81
2022/04/28 14:38:53;;;;;;;2.57;2.37;;;;;;;;;;5003497;28;20502;-78
2022/04/28 14:41:19;;;;;;;2.93;2.70;;;;;;;;;;5001698;28;20424;-78
2022/04/28 14:43:46;;;;;;;3.23;2.23;;;;;;;;;;4999816;28;20438;-80
2022/04/28 14:46:12;;;;;;;3.67;3.17;;;;;;;;;;5000527;28;20444;-79
2022/04/28 14:54:07;;;;;;;2.40;2.00;;;;;;;;;;5001837;28;20425;-79
2022/04/28 14:56:33;;;;;;;2.90;2.33;;;;;;;;;;5002722;28;20457;-80
2022/04/28 14:58:59;;;;;;;2.80;2.17;;;;;;;;;;5000681;28;20494;-82
2022/04/28 15:01:25;;;;;;;2.60;2.40;;;;;;;;;;5000178;28;20467;-79
2022/04/28 15:03:51;;;;;;;3.97;2.00;;;;;;;;;;4999043;28;20413;-79
2022/04/28 15:06:17;;;;;;;3.40;2.20;;;;;;;;;;4967962;28;20481;-79
2022/04/28 15:08:43;;;;;;;3.80;2.97;;;;;;;;;;5003861;28;20476;-78